Benvolgut visitant, si us plau, ingressa Recuperar contrasenya
AVAMET paisatges
Union Alcoyana

València l'Albufera/Tancat de la Pipa

Dades diàries. Acumulats / Últims 30 dies disponibles

Data Temperatura (°C) Humitat rel. (%) Pressió rel. (hPa) Vent (km/h) Precipitació
Mínima Mitjana Màxima Amplitud
tèrmica
Mínima Mitjana Màxima Mínima Mitjana Màxima Predom. Mitjana Ràfega
màxima
Total
(mm)
Índex-n
Mínima Mitjana Màxima Mínima Mitjana Màxima n
0 a 1
P0 max
mm 5'
Dades mensuals acumulades fins l'últim dia disponible
11/2022 8,2 14,3 19,0 17,7 16,4 21,7 26,4 18,2 19 71 96 1.006 1.018 1.030   12,7 67,6 47,2
Dades anuals acumulades fins l'últim dia disponible
2022 3,5 16,0 27,3 19,4 11,3 22,7 36,0 32,5 19 78 97 998 1.017 1.035   10,8 95,0 607,8
Últims 30 dies disponibles
27-11-2022 8,2     11,8     16,4 8,2 51 76 87 1.018 1.024 1.027 SW 3,9 12,9 0,0
26-11-2022 10,5     13,5     17,8 7,3 44 67 82 1.027 1.028 1.030 WSW 6,3 22,5 0,0
25-11-2022 14,3     18,2     22,3 8,0 43 65 83 1.017 1.021 1.027 W 16,4 41,8 0,0
24-11-2022 15,5     18,4     22,2 6,7 59 75 83 1.016 1.018 1.020 WSW 9,8 32,2 0,0
23-11-2022 16,7     19,9     22,7 6,0 60 68 83 1.009 1.012 1.017 W 24,9 66,0 0,0
22-11-2022 11,5     14,6     17,6 6,1 46 59 73 1.011 1.014 1.016 W 22,7 54,7 0,0
21-11-2022 15,1     17,6     21,2 6,1 53 68 78 1.007 1.013 1.021 W 23,3 67,6 0,0
20-11-2022 11,0     15,4     20,9 9,9 47 59 72 1.018 1.020 1.021 W 16,4 53,1 0,0
19-11-2022 11,5     13,9     17,2 5,7 40 56 69 1.012 1.014 1.018 WNW 16,6 45,1 0,0
18-11-2022 12,8     16,8     20,4 7,6 60 70 76 1.007 1.010 1.012 W 16,6 41,8 0,0
17-11-2022 19,0     21,1     23,9 4,9 58 68 74 1.006 1.007 1.009 W 24,1 61,2 0,0
16-11-2022 18,8     19,8     21,4 2,6 56 67 77 1.008 1.009 1.011 W 19,8 49,9 0,0
15-11-2022 16,6     19,8     23,9 7,3 55 71 82 1.010 1.013 1.017 WSW 10,5 35,4 0,0
14-11-2022 14,7     18,3     22,5 7,8 57 78 94 1.016 1.018 1.019 WSW 10,5 37,0 0,2
13-11-2022 14,6     17,7     21,3 6,7 71 84 93 1.018 1.020 1.023 NW 5,8 19,3 0,2
12-11-2022 16,4     20,2     22,3 5,9 78 87 94 1.023 1.024 1.026 E 14,0 46,7 2,2
11-11-2022 14,8     15,8     17,5 2,7 84 93 95 1.023 1.025 1.026 NNW 10,6 49,9 41,8
10-11-2022 13,5     16,9     20,7 7,2 59 77 92 1.020 1.023 1.026 WSW 7,4 30,6 2,4
09-11-2022 16,3     19,2     24,3 8,0 50 70 84 1.016 1.017 1.020 W 12,7 56,3 0,4
08-11-2022 13,4     18,3     24,4 11,0 42 74 94 1.014 1.016 1.018 WSW 8,2 29,0 0,0
07-11-2022 11,6     16,6     21,4 9,8 54 75 94 1.017 1.019 1.021 WNW 5,5 17,7 0,0
06-11-2022 10,6     16,6     26,4 15,8 25 65 81 1.014 1.017 1.019 WSW 8,2 32,2 0,0
05-11-2022 11,2     15,8     21,1 9,9 29 58 74 1.018 1.020 1.021 WSW 8,5 32,2 0,0
04-11-2022 14,6     19,6     24,3 9,7 19 51 80 1.015 1.017 1.021 W 15,9 48,3 0,0
03-11-2022 17,2     20,8     24,2 7,0 51 74 96 1.014 1.017 1.021 WSW 11,6 45,1 0,0
02-11-2022 17,7     20,2     23,0 5,3 79 89 94 1.021 1.022 1.024 ENE 7,1 27,4 0,0
01-11-2022 18,1     21,1     25,7 7,6 55 83 93 1.019 1.021 1.023 ESE 6,9 25,7 0,0
31-10-2022 17,8     20,2     22,7 4,9 79 89 94 1.018 1.019 1.020 WSW 3,7 14,5 0,0
30-10-2022 16,3     19,2     21,9 5,6 80 90 95 1.018 1.020 1.021 NW 4,3 20,9 0,0
29-10-2022 16,9     19,6     23,0 6,1 77 88 95 1.020 1.022 1.024 NW 5,5 20,9 0,2
Últims 13 mesos disponibles
10/2022 14,3 17,4 20,1 20,6 21,3 24,1 28,2 13,9 65 85 92 1.015 1.020 1.025 NW 6,4 41,8 51,0
09/2022 14,2 20,5 24,0 24,2 22,4 27,7 35,2 21,0 54 76 88 1.005 1.012 1.017 NW 8,4 46,7 46,2
08/2022 19,2 23,5 26,9 27,2 27,4 30,3 36,0 16,8 51 78 87 1.006 1.013 1.017 ESE 9,7 72,4 32,0
07/2022 20,9 23,4 27,3 26,6 25,1 29,0 32,2 11,3 67 80 89 1.011 1.016 1.020 SE 9,6 46,7 1,2
06/2022 18,0 21,2 23,8 24,5 23,4 27,5 32,9 14,9 53 78 90 1.009 1.014 1.019 SE 10,3 49,9 5,6
05/2022 12,6 15,8 20,1 19,6 16,4 22,8 30,3 17,7 67 80 93 1.006 1.016 1.023 SE 10,3 61,2 89,6
04/2022 4,1 11,8 14,9 15,2 11,6 18,7 25,3 21,2 49 73 94 1.002 1.014 1.023 ENE 14,0 95,0 108,2
03/2022 7,3 11,0 14,5 13,2 11,5 15,6 22,9 15,6 64 85 96 1.002 1.018 1.025 NE 18,6 75,6 213,2
02/2022 6,8 9,5 11,7 13,0 14,0 16,9 23,5 16,7 49 76 89 1.016 1.024 1.032 NW 9,2 53,1 2,0
01/2022 3,5 7,1 13,6 10,7 11,3 15,2 23,0 19,5 52 75 92 1.013 1.027 1.033 WSW 9,6 85,3 11,6
12/2021 7,7 11,0 16,6 14,0 13,7 17,5 21,9 14,2 54 74 90 1.008 1.020 1.029 W 15,2 80,5 2,0
11/2021 7,1 11,2 18,6 14,2 12,8 17,8 26,8 19,7 54 71 90 1.005 1.015 1.028 W 11,5 67,6 78,2
10/2021 12,8 16,1 19,8 19,7 20,1 23,3 29,7 16,9 61 82 89 1.008 1.018 1.025 W 8,8 67,6 65,4
Tots els anys disponibles
2021 1,3 14,9 24,7 18,1 7,2 21,3 37,2 35,9 0 77 93 0 1.003 1.034 W 11,8 101,4 455,0
2020 3,0 14,9 25,5 18,3 9,2 21,8 33,4 30,4 43 77 94 997 1.017 1.033 N 11,4 103,0 396,2
2019 2,1 14,6 25,9 18,1 11,2 21,8 39,3 37,2 42 74 95 994 1.016 1.034 ESE 10,2 107,8 268,2
2018 3,1 14,9 25,2 18,2 9,0 21,6 34,3 31,2 WSW 11,4 83,7 805,6
2017 2,1 14,7 25,6 18,2 9,4 21,6 35,0 32,9 ESE 10,9 93,3 307,0
2016 3,7 15,2 25,4 18,4 11,3 21,6 34,2 30,5 ESE 11,9 91,7 453,4
Temperatura (°C)
Humitat relativa (%)
Velocitat del vent i ràfega màxima (km/h)
Direcció del vent (°)
Pressió (hPa)
Precipitació (mm)
Nota sobre les dades: s'avisa a l'usuari de la provisionalitat i no oficialitat d'aquestes dades
Logo AVAMET blanc
Web allotjada a Sollutia
Llicència de Creative CommonsLa web d'AVAMET i els seus continguts estan subjectes a una llicència de
Reconeixement - No Comercial - Compartir igual
Avís legal - Política de privacitat - Política de cookies
NOVES ESTACIONS: Fuentes de Ayódar (Ajuntament Soci), Quatretonda - sud-est (Soci), València - el Saler (Platja de la Garrofera) (Soci), la Vall de GallineraBenialí (Ajuntament/Soci), Torrevieja (Institut Cartogràfic Valencià), Xodos - Mas de Caixó (Soci), Catí - Venta de l'Aire (Soci/Electra del Maestrazgo), Herbers (Ajuntament/Soci), Biar - Sant Roc (Soci), Benicàssim - Alt del Bartolo (Soci), Pego - Les Verdales (Soci), Paterna - Cases Verdes (Soci), Bejís (Soci), Onil - Trail Natura (Soci), Zucaina (Soci), Benaguasil (Soci), Orxeta (Ajuntament Soci), Burjassot - Villa Indiano (Soci), Vila-real - Plaça Dos de Maig (Soci), Ontinyent - Manuel Iranzo (Soci), Elx - la Baia (soci), Vila-real - La Llum de Tol (Soci), Sant Vicent del Raspeig - el Rabosar (Soci) - - -